RJOARJFM

Guest
Details From RJOA - HIROSHIMA
To RJFM - MIYAZAKI
Flight Number -
Tags generated
Created
Modified
Stats Distance 171 nm / 317 km
Max Altitude 18,300 ft / 5,578 m
Waypoints 3
Social Downloads 2
Likes 0
Share VATSIM

Download

Looking for another format? Having issues loading an existing format? Contact us
Advertisement - Login to hide

Notes

Basic altitude profile: - Ascent Rate: 2500ft/min - Ascent Speed: 250kts - Cruise Altitude: 35000ft - Cruise Speed: 420kts - Descent Rate: 1500ft/min - Descent Speed: 250kts Options: - Use NATs: yes - Use PACOTS: yes - Use low airways: yes - Use high airways: yes

Route

RJOA SATAH RJFM

ID Type Via Altitude Latitude Longitude Leg Dist Tot Dist Heading (true) Name
O RJOA APT - 0 ft / 0 m 34.43603˚ 132.91944˚ - 0 nm - HIROSHIMA
SATAH FIX - 18,300 ft / 5,578 m 33.28527˚ 132.08641˚ 80 nm 80 nm 211° / 211° -
O RJFM APT - 0 ft / 0 m 31.87713˚ 131.44845˚ 90 nm 171 nm 201° / 201° MIYAZAKI

Altitude Profile

Advertisement - Login to hide

Weather


0- 5 10 15 20 25 30 35+ Temperature / ° C

Clouds and Precipitation
Forecast for 2017-12-12 00:00 UTC. Updated 8 minutes ago

Ground ~20,000 ft ~40,000 ft Winds

RJOA

Details ICAO RJOA (HIJ)
Name HIROSHIMA
Region Japan
Timezone Asia/Tokyo (UTC+9.0)
Stats Elevation 1,088 ft / 332 m (AMSL)
Location 34.436025° 132.919444°
Runways 1
Magnetic Variation 7.696° W

METAR

Not found

TAF

TAF RJOA 111712Z 1118/1300 29012KT 9999 FEW015 BKN030

Decode

Departure Runways

ID Width Length Bearing (true) Bearing (mag) Surface Threshold Offset Overrun Length
10 200 ft / 61 m 9,823 ft / 2,994 m 89.99° 97.69° Asphalt 0 ft / 0 m 210 ft / 64 m
28 200 ft / 61 m 9,823 ft / 2,994 m 270.01° 277.71° Asphalt 0 ft / 0 m 210 ft / 64 m

RJFM

Details ICAO RJFM (KMI)
Name MIYAZAKI
Region Japan
Timezone Asia/Tokyo (UTC+9.0)
Stats Elevation 20 ft / 6 m (AMSL)
Location 31.877128° 131.448447°
Runways 1
Magnetic Variation 6.932° W

METAR

Not found

TAF

TAF RJFM 111705Z 1118/1300 27011KT 9999 FEW030 TEMPO 1203/1209 29016G26KT

Decode

Destination Runways

ID Width Length Bearing (true) Bearing (mag) Surface Threshold Offset Overrun Length
09 150 ft / 46 m 8,187 ft / 2,496 m 85.16° 92.09° Asphalt 0 ft / 0 m 200 ft / 61 m
27 150 ft / 46 m 8,187 ft / 2,496 m 265.18° 272.11° Asphalt 0 ft / 0 m 200 ft / 61 m

Approach Navaids

Runway Type Ident Frequency Range Bearing (true) Bearing (mag) Slope Elevation
27 Localiser IMZ 108.90 MHz 18 nm / 33 km 265.16° 272.10° - 54 ft / 16 m (AMSL)
27 Glidescope IMZ 108.90 MHz 10 nm / 19 km 265.17° 272.10° 3.00° 54 ft / 16 m (AMSL)
27 DME IMZ 108.90 MHz 18 nm / 33 km - - - 34 ft / 10 m (AMSL)